createdAt,value
2019-05-05T00:00:48.840Z,0.00
2019-05-05T00:01:48.754Z,0.00
2019-05-05T00:03:41.661Z,0.00
2019-05-05T00:04:41.573Z,0.00
2019-05-05T00:06:34.425Z,0.00
2019-05-05T00:07:34.907Z,0.00
2019-05-05T00:09:27.180Z,0.00
2019-05-05T00:10:27.020Z,0.00
2019-05-05T00:12:19.836Z,0.00
2019-05-05T00:13:19.805Z,0.00
2019-05-05T00:15:14.502Z,0.00
2019-05-05T00:16:12.487Z,0.00
2019-05-05T00:18:05.517Z,0.00
2019-05-05T00:19:05.356Z,0.00
2019-05-05T00:20:58.071Z,0.00
2019-05-05T00:21:58.244Z,0.00
2019-05-05T00:23:50.769Z,0.00
2019-05-05T00:24:50.711Z,0.00
2019-05-05T00:26:43.536Z,0.00
2019-05-05T00:27:45.257Z,0.00
2019-05-05T00:29:36.156Z,0.00
2019-05-05T00:30:36.068Z,0.00
2019-05-05T00:32:28.837Z,0.00
2019-05-05T00:33:28.758Z,0.00
2019-05-05T00:35:21.571Z,0.00
2019-05-05T00:36:21.470Z,0.00
2019-05-05T00:38:14.438Z,0.00
2019-05-05T00:39:14.969Z,0.00
2019-05-05T00:41:07.061Z,0.00
2019-05-05T00:42:07.034Z,0.00
2019-05-05T00:43:59.846Z,0.00
2019-05-05T00:44:59.727Z,0.00
2019-05-05T00:46:52.541Z,0.00
2019-05-05T00:47:54.410Z,0.00
2019-05-05T00:49:49.050Z,0.00
2019-05-05T00:50:45.162Z,0.00
2019-05-05T00:52:38.020Z,0.00
2019-05-05T00:53:37.923Z,0.00
2019-05-05T00:55:30.672Z,0.00
2019-05-05T00:56:30.608Z,0.00
2019-05-05T00:58:24.739Z,0.00
2019-05-05T00:59:25.182Z,0.00
2019-05-05T01:01:16.172Z,0.00
2019-05-05T01:02:16.079Z,0.00
2019-05-05T01:04:08.881Z,0.00
2019-05-05T01:05:08.774Z,0.00
2019-05-05T01:07:01.635Z,0.00
2019-05-05T01:08:01.723Z,0.00
2019-05-05T01:09:54.403Z,0.00
2019-05-05T01:10:54.773Z,0.00
2019-05-05T01:12:47.063Z,0.00
2019-05-05T01:13:47.019Z,0.00
2019-05-05T01:15:39.837Z,0.00
2019-05-05T01:16:39.719Z,0.00
2019-05-05T01:18:34.969Z,0.00
2019-05-05T01:19:32.408Z,0.00
2019-05-05T01:21:25.354Z,0.00
2019-05-05T01:22:25.202Z,0.00
2019-05-05T01:24:18.014Z,0.00
2019-05-05T01:25:17.908Z,0.00
2019-05-05T01:27:10.747Z,0.00
2019-05-05T01:28:10.741Z,0.00
2019-05-05T01:30:04.769Z,0.00
2019-05-05T01:31:05.506Z,0.00
2019-05-05T01:32:56.254Z,0.00
2019-05-05T01:33:56.197Z,0.00
2019-05-05T01:35:48.932Z,0.00
2019-05-05T01:36:48.830Z,0.00
2019-05-05T01:38:41.745Z,0.00
2019-05-05T01:39:41.685Z,0.00
2019-05-05T01:41:34.881Z,0.00
2019-05-05T01:42:35.292Z,0.00
2019-05-05T01:44:27.179Z,0.00
2019-05-05T01:45:27.116Z,0.00
2019-05-05T01:47:19.851Z,0.00
2019-05-05T01:48:19.779Z,0.00
2019-05-05T01:50:18.438Z,0.00
2019-05-05T01:51:14.357Z,0.00
2019-05-05T01:53:05.729Z,0.00
2019-05-05T01:54:05.633Z,0.00
2019-05-05T01:55:54.242Z,0.00
2019-05-05T01:56:52.571Z,0.00
2019-05-05T01:58:45.428Z,0.00
2019-05-05T01:59:45.283Z,0.00
2019-05-05T02:01:38.067Z,0.00
2019-05-05T02:02:37.966Z,0.00
2019-05-05T02:04:30.729Z,0.00
2019-05-05T02:05:30.773Z,0.00
2019-05-05T02:07:25.038Z,0.00
2019-05-05T02:08:24.475Z,0.00
2019-05-05T02:10:16.218Z,0.00
2019-05-05T02:11:16.060Z,0.00
2019-05-05T02:13:08.993Z,0.00
2019-05-05T02:14:08.837Z,0.00
2019-05-05T02:16:01.671Z,0.00
2019-05-05T02:17:01.511Z,0.00
2019-05-05T02:18:54.591Z,0.00
2019-05-05T02:19:54.931Z,0.00
2019-05-05T02:21:47.153Z,0.00
2019-05-05T02:22:47.068Z,0.00
2019-05-05T02:24:39.852Z,0.00
2019-05-05T02:25:39.763Z,0.00
2019-05-05T02:27:34.317Z,0.00
2019-05-05T02:28:32.465Z,0.00
2019-05-05T02:30:26.726Z,0.00
2019-05-05T02:31:25.655Z,0.00
2019-05-05T02:33:18.001Z,0.00
2019-05-05T02:34:17.916Z,0.00
2019-05-05T02:36:10.711Z,0.00
2019-05-05T02:37:10.741Z,0.00
2019-05-05T02:39:05.436Z,0.00
2019-05-05T02:40:07.389Z,0.00
2019-05-05T02:41:56.129Z,0.00
2019-05-05T02:42:56.039Z,0.00
2019-05-05T02:44:48.862Z,0.00
2019-05-05T02:45:48.777Z,0.00
2019-05-05T02:47:41.720Z,0.00
2019-05-05T02:48:41.510Z,0.00
2019-05-05T02:50:51.100Z,0.00
2019-05-05T02:51:35.474Z,0.00
2019-05-05T02:53:27.040Z,0.00
2019-05-05T02:54:26.939Z,0.00
2019-05-05T02:56:19.779Z,4.00
2019-05-05T02:57:19.708Z,4.00
2019-05-05T02:59:14.612Z,0.00
2019-05-05T03:00:13.486Z,4.00
2019-05-05T03:02:05.206Z,4.00
2019-05-05T03:03:05.288Z,4.00
2019-05-05T03:04:57.892Z,4.00
2019-05-05T03:05:57.816Z,4.00
2019-05-05T03:07:50.673Z,8.00
2019-05-05T03:08:50.628Z,8.00
2019-05-05T03:10:44.289Z,8.00
2019-05-05T03:11:43.720Z,12.00
2019-05-05T03:13:36.334Z,16.00
2019-05-05T03:14:36.212Z,20.00
2019-05-05T03:16:29.098Z,24.00
2019-05-05T03:17:28.989Z,28.00
2019-05-05T03:19:23.551Z,36.00
2019-05-05T03:20:23.367Z,36.00
2019-05-05T03:22:14.592Z,44.00
2019-05-05T03:23:14.423Z,52.00
2019-05-05T03:25:07.428Z,60.00
2019-05-05T03:26:07.288Z,64.00
2019-05-05T03:28:00.066Z,80.00
2019-05-05T03:28:59.923Z,84.00
2019-05-05T03:30:55.822Z,100.00
2019-05-05T03:31:55.906Z,108.00
2019-05-05T03:33:46.184Z,128.00
2019-05-05T03:34:45.457Z,140.00
2019-05-05T03:36:38.357Z,156.00
2019-05-05T03:37:38.227Z,168.00
2019-05-05T03:39:31.084Z,188.00
2019-05-05T03:40:30.910Z,204.00
2019-05-05T03:42:24.523Z,224.00
2019-05-05T03:43:23.746Z,236.00
2019-05-05T03:45:16.583Z,264.00
2019-05-05T03:46:16.501Z,280.00
2019-05-05T03:48:09.329Z,312.00
2019-05-05T03:49:09.237Z,324.00
2019-05-05T03:51:16.014Z,352.00
2019-05-05T03:52:01.954Z,368.00
2019-05-05T03:53:54.778Z,400.00
2019-05-05T03:54:54.673Z,412.00
2019-05-05T03:56:47.532Z,444.00
2019-05-05T03:57:47.450Z,460.00
2019-05-05T03:59:40.310Z,492.00
2019-05-05T04:00:40.166Z,504.00
2019-05-05T04:02:34.044Z,536.00
2019-05-05T04:03:34.152Z,552.00
2019-05-05T04:05:26.167Z,588.00
2019-05-05T04:06:25.751Z,604.00
2019-05-05T04:08:18.483Z,632.00
2019-05-05T04:09:18.410Z,652.00
2019-05-05T04:11:11.244Z,684.00
2019-05-05T04:12:11.136Z,700.00
2019-05-05T04:14:03.985Z,732.00
2019-05-05T04:15:03.889Z,752.00
2019-05-05T04:16:56.716Z,784.00
2019-05-05T04:17:56.667Z,796.00
2019-05-05T04:19:49.426Z,828.00
2019-05-05T04:20:49.355Z,844.00
2019-05-05T04:22:43.520Z,876.00
2019-05-05T04:23:44.048Z,892.00
2019-05-05T04:25:35.172Z,920.00
2019-05-05T04:26:34.886Z,936.00
2019-05-05T04:28:27.654Z,964.00
2019-05-05T04:29:27.592Z,976.00
2019-05-05T04:31:20.408Z,1008.00
2019-05-05T04:32:20.365Z,1024.00
2019-05-05T04:34:13.516Z,1052.00
2019-05-05T04:35:14.058Z,1064.00
2019-05-05T04:37:06.628Z,1096.00
2019-05-05T04:38:06.548Z,1108.00
2019-05-05T04:39:59.340Z,1136.00
2019-05-05T04:40:59.262Z,1152.00
2019-05-05T04:42:54.443Z,1176.00
2019-05-05T04:43:51.958Z,1188.00
2019-05-05T04:45:45.009Z,1216.00
2019-05-05T04:46:44.727Z,1228.00
2019-05-05T04:48:37.560Z,1256.00
2019-05-05T04:49:37.393Z,1272.00
2019-05-05T04:51:44.011Z,1300.00
2019-05-05T04:52:30.136Z,1320.00
2019-05-05T04:54:24.390Z,1348.00
2019-05-05T04:55:24.452Z,1364.00
2019-05-05T04:57:15.679Z,1392.00
2019-05-05T04:58:15.567Z,1416.00
2019-05-05T05:00:08.387Z,1464.00
2019-05-05T05:01:08.279Z,1488.00
2019-05-05T05:03:01.079Z,1528.00
2019-05-05T05:04:01.025Z,1548.00
2019-05-05T05:05:53.906Z,1588.00
2019-05-05T05:06:54.296Z,1612.00
2019-05-05T05:08:46.618Z,1680.00
2019-05-05T05:09:46.483Z,1728.00
2019-05-05T05:11:39.275Z,1836.00
2019-05-05T05:12:39.218Z,1896.00
2019-05-05T05:14:33.733Z,2072.00
2019-05-05T05:15:33.915Z,2260.00
2019-05-05T05:17:25.045Z,3116.00
2019-05-05T05:18:24.711Z,3992.00
2019-05-05T05:20:17.471Z,6860.00
2019-05-05T05:21:17.403Z,9272.00
2019-05-05T05:23:10.274Z,13728.00
2019-05-05T05:24:10.114Z,14688.00
2019-05-05T05:26:04.860Z,15168.00
2019-05-05T05:27:04.859Z,15328.00
2019-05-05T05:28:55.647Z,15584.00
2019-05-05T05:29:55.550Z,15744.00
2019-05-05T05:31:48.436Z,16032.00
2019-05-05T05:32:48.338Z,16160.00
2019-05-05T05:34:41.138Z,16384.00
2019-05-05T05:35:41.056Z,16512.00
2019-05-05T05:37:34.339Z,16864.00
2019-05-05T05:38:34.671Z,16928.00
2019-05-05T05:40:26.703Z,17120.00
2019-05-05T05:41:26.606Z,17280.00
2019-05-05T05:43:19.500Z,17504.00
2019-05-05T05:44:19.375Z,17696.00
2019-05-05T05:46:13.606Z,17984.00
2019-05-05T05:47:13.886Z,18144.00
2019-05-05T05:49:04.977Z,18336.00
2019-05-05T05:50:04.830Z,18432.00
2019-05-05T05:51:57.721Z,18624.00
2019-05-05T05:52:57.666Z,18752.00
2019-05-05T05:54:50.570Z,18816.00
2019-05-05T05:55:50.449Z,18880.00
2019-05-05T05:57:43.930Z,18944.00
2019-05-05T05:58:44.202Z,19072.00
2019-05-05T06:00:36.155Z,19392.00
2019-05-05T06:01:35.996Z,19520.00
2019-05-05T06:03:28.809Z,19712.00
2019-05-05T06:04:28.747Z,19808.00
2019-05-05T06:06:21.503Z,20096.00
2019-05-05T06:07:21.467Z,20128.00
2019-05-05T06:09:14.826Z,20320.00
2019-05-05T06:10:22.258Z,20512.00
2019-05-05T06:12:07.012Z,20864.00
2019-05-05T06:13:06.947Z,20928.00
2019-05-05T06:14:59.708Z,21216.00
2019-05-05T06:15:59.661Z,21376.00
2019-05-05T06:17:53.946Z,21664.00
2019-05-05T06:18:54.220Z,21760.00
2019-05-05T06:20:45.250Z,21760.00
2019-05-05T06:21:45.183Z,21888.00
2019-05-05T06:23:38.035Z,22048.00
2019-05-05T06:24:37.932Z,22080.00
2019-05-05T06:26:30.796Z,22240.00
2019-05-05T06:27:30.718Z,22400.00
2019-05-05T06:29:23.892Z,22688.00
2019-05-05T06:30:24.355Z,22880.00
2019-05-05T06:32:16.290Z,23168.00
2019-05-05T06:33:16.177Z,23520.00
2019-05-05T06:35:09.010Z,23840.00
2019-05-05T06:36:08.971Z,23968.00
2019-05-05T06:38:01.894Z,24096.00
2019-05-05T06:39:01.677Z,24128.00
2019-05-05T06:40:54.493Z,24384.00
2019-05-05T06:41:54.475Z,24512.00
2019-05-05T06:43:47.349Z,24736.00
2019-05-05T06:44:47.309Z,24864.00
2019-05-05T06:46:40.042Z,24864.00
2019-05-05T06:47:39.977Z,24928.00
2019-05-05T06:49:34.487Z,24960.00
2019-05-05T06:50:34.387Z,24928.00
2019-05-05T06:52:25.763Z,24672.00
2019-05-05T06:53:25.669Z,24576.00
2019-05-05T06:55:18.496Z,24416.00
2019-05-05T06:56:18.403Z,24256.00
2019-05-05T06:58:11.297Z,24608.00
2019-05-05T06:59:11.164Z,25024.00
2019-05-05T07:01:04.113Z,25632.00
2019-05-05T07:02:04.367Z,25856.00
2019-05-05T07:03:56.783Z,26048.00
2019-05-05T07:04:56.711Z,26112.00
2019-05-05T07:06:54.009Z,26336.00
2019-05-05T07:07:49.540Z,26528.00
2019-05-05T07:09:44.260Z,26816.00
2019-05-05T07:10:44.280Z,26816.00
2019-05-05T07:12:35.185Z,26656.00
2019-05-05T07:13:35.125Z,26752.00
2019-05-05T07:15:29.631Z,27040.00
2019-05-05T07:16:29.515Z,27328.00
2019-05-05T07:18:24.540Z,27520.00
2019-05-05T07:19:23.923Z,27552.00
2019-05-05T07:21:15.141Z,27680.00
2019-05-05T07:22:17.586Z,27904.00
2019-05-05T07:24:08.105Z,28000.00
2019-05-05T07:25:07.795Z,28064.00
2019-05-05T07:27:00.608Z,27936.00
2019-05-05T07:28:00.607Z,27904.00
2019-05-05T07:29:54.153Z,27808.00
2019-05-05T07:30:54.776Z,27904.00
2019-05-05T07:32:46.391Z,27936.00
2019-05-05T07:33:46.351Z,28160.00
2019-05-05T07:35:52.019Z,28416.00
2019-05-05T07:36:39.021Z,29088.00
2019-05-05T07:38:33.761Z,29632.00
2019-05-05T07:39:33.993Z,29792.00
2019-05-05T07:41:24.631Z,30176.00
2019-05-05T07:42:24.573Z,30496.00
2019-05-05T07:44:26.513Z,30784.00
2019-05-05T07:45:22.418Z,31072.00
2019-05-05T07:47:10.138Z,32000.00
2019-05-05T07:48:10.153Z,32224.00
2019-05-05T07:50:04.119Z,9496.00
2019-05-05T07:51:05.280Z,31520.00
2019-05-05T07:52:55.679Z,33312.00
2019-05-05T07:53:55.595Z,33152.00
2019-05-05T07:55:48.373Z,34240.00
2019-05-05T07:56:48.311Z,34272.00
2019-05-05T07:58:41.133Z,33504.00
2019-05-05T07:59:41.118Z,12084.00
2019-05-05T08:01:34.019Z,6036.00
2019-05-05T08:02:33.999Z,5492.00
2019-05-05T08:04:26.762Z,4040.00
2019-05-05T08:05:26.762Z,5012.00
2019-05-05T08:07:19.669Z,33856.00
2019-05-05T08:08:19.407Z,14688.00
2019-05-05T08:10:13.670Z,33504.00
2019-05-05T08:11:14.502Z,33568.00
2019-05-05T08:13:05.309Z,33760.00
2019-05-05T08:14:05.117Z,33504.00
2019-05-05T08:16:00.127Z,33632.00
2019-05-05T08:16:57.958Z,33728.00
2019-05-05T08:18:51.091Z,33568.00
2019-05-05T08:19:50.942Z,33600.00
2019-05-05T08:21:43.880Z,33888.00
2019-05-05T08:22:44.305Z,10416.00
2019-05-05T08:24:36.816Z,7616.00
2019-05-05T08:25:40.160Z,6204.00
2019-05-05T08:27:29.599Z,5572.00
2019-05-05T08:28:29.470Z,5904.00
2019-05-05T08:30:24.315Z,5616.00
2019-05-05T08:31:22.268Z,12084.00
2019-05-05T08:33:15.212Z,32352.00
2019-05-05T08:34:15.200Z,32256.00
2019-05-05T08:36:07.976Z,33120.00
2019-05-05T08:37:07.918Z,32480.00
2019-05-05T08:39:00.755Z,32800.00
2019-05-05T08:40:00.757Z,32800.00
2019-05-05T08:41:53.882Z,6500.00
2019-05-05T08:42:54.049Z,5484.00
2019-05-05T08:44:46.832Z,32096.00
2019-05-05T08:45:46.710Z,31648.00
2019-05-05T08:47:39.546Z,31168.00
2019-05-05T08:48:39.470Z,30912.00
2019-05-05T08:50:34.619Z,30656.00
2019-05-05T08:51:33.935Z,30464.00
2019-05-05T08:53:25.022Z,29664.00
2019-05-05T08:54:24.961Z,31232.00
2019-05-05T08:56:18.022Z,25408.00
2019-05-05T08:57:17.857Z,5804.00
2019-05-05T08:59:10.761Z,25312.00
2019-05-05T09:00:10.676Z,25248.00
2019-05-05T09:02:04.511Z,11012.00
2019-05-05T09:03:03.949Z,30048.00
2019-05-05T09:04:56.354Z,29440.00
2019-05-05T09:05:56.309Z,10656.00
2019-05-05T09:07:49.196Z,5180.00
2019-05-05T09:08:49.082Z,4396.00
2019-05-05T09:10:41.883Z,28768.00
2019-05-05T09:11:43.825Z,27904.00
2019-05-05T09:13:34.690Z,27360.00
2019-05-05T09:14:34.715Z,27104.00
2019-05-05T09:16:27.440Z,26912.00
2019-05-05T09:17:28.110Z,26784.00
2019-05-05T09:19:20.192Z,26400.00
2019-05-05T09:20:20.170Z,26048.00
2019-05-05T09:22:14.104Z,25696.00
2019-05-05T09:23:14.759Z,25472.00
2019-05-05T09:25:07.622Z,25344.00
2019-05-05T09:26:07.443Z,25408.00
2019-05-05T09:28:02.995Z,24992.00
2019-05-05T09:29:00.264Z,24704.00
2019-05-05T09:30:53.726Z,24672.00
2019-05-05T09:31:54.066Z,24448.00
2019-05-05T09:33:46.058Z,23968.00
2019-05-05T09:34:45.868Z,23712.00
2019-05-05T09:36:38.782Z,23456.00
2019-05-05T09:37:38.701Z,23616.00
2019-05-05T09:39:31.495Z,23168.00
2019-05-05T09:40:33.394Z,23104.00
2019-05-05T09:42:24.333Z,22880.00
2019-05-05T09:43:24.244Z,22464.00
2019-05-05T09:45:17.318Z,21888.00
2019-05-05T09:46:17.260Z,22144.00
2019-05-05T09:48:10.130Z,4472.00
2019-05-05T09:49:10.110Z,4088.00
2019-05-05T09:51:04.381Z,3860.00
2019-05-05T09:52:04.791Z,3744.00
2019-05-05T09:53:55.948Z,3628.00
2019-05-05T09:54:55.668Z,4264.00
2019-05-05T09:56:48.398Z,19456.00
2019-05-05T09:57:48.324Z,19008.00
2019-05-05T09:59:41.302Z,18144.00
2019-05-05T10:00:41.226Z,18304.00
2019-05-05T10:02:34.526Z,4556.00
2019-05-05T10:03:34.159Z,4468.00
2019-05-05T10:05:27.157Z,4332.00
2019-05-05T10:06:26.904Z,4192.00
2019-05-05T10:08:19.792Z,4012.00
2019-05-05T10:09:19.687Z,3948.00
2019-05-05T10:11:12.495Z,3848.00
2019-05-05T10:12:12.447Z,3720.00
2019-05-05T10:14:05.269Z,3608.00
2019-05-05T10:15:07.501Z,3624.00
2019-05-05T10:16:57.989Z,3732.00
2019-05-05T10:17:57.933Z,3764.00
2019-05-05T10:19:50.735Z,3860.00
2019-05-05T10:20:50.649Z,3884.00
2019-05-05T10:22:43.904Z,3924.00
2019-05-05T10:23:43.705Z,4168.00
2019-05-05T10:25:36.482Z,5024.00
2019-05-05T10:26:36.344Z,5004.00
2019-05-05T10:28:29.571Z,8356.00
2019-05-05T10:29:29.259Z,7412.00
2019-05-05T10:31:24.019Z,4836.00
2019-05-05T10:32:21.986Z,4480.00
2019-05-05T10:34:14.828Z,4420.00
2019-05-05T10:35:14.756Z,4280.00
2019-05-05T10:37:07.762Z,4156.00
2019-05-05T10:38:07.552Z,4192.00
2019-05-05T10:40:00.348Z,4308.00
2019-05-05T10:41:00.285Z,4392.00
2019-05-05T10:42:53.927Z,4528.00
2019-05-05T10:43:54.176Z,4760.00
2019-05-05T10:45:45.934Z,4948.00
2019-05-05T10:46:45.871Z,4836.00
2019-05-05T10:48:38.672Z,4684.00
2019-05-05T10:49:38.664Z,4740.00
2019-05-05T10:51:31.703Z,4864.00
2019-05-05T10:52:31.390Z,4912.00
2019-05-05T10:54:24.345Z,5008.00
2019-05-05T10:55:24.324Z,5064.00
2019-05-05T10:57:18.483Z,5128.00
2019-05-05T10:58:16.908Z,5088.00
2019-05-05T11:00:12.698Z,4928.00
2019-05-05T11:01:09.845Z,4960.00
2019-05-05T11:03:03.989Z,5076.00
2019-05-05T11:04:02.483Z,4980.00
2019-05-05T11:05:55.376Z,5064.00
2019-05-05T11:06:55.259Z,4964.00
2019-05-05T11:08:48.205Z,4780.00
2019-05-05T11:09:48.037Z,4512.00
2019-05-05T11:11:40.867Z,4504.00
2019-05-05T11:12:40.815Z,4488.00
2019-05-05T11:14:33.796Z,4464.00
2019-05-05T11:15:33.653Z,4520.00
2019-05-05T11:17:26.366Z,4620.00
2019-05-05T11:18:26.283Z,4692.00
2019-05-05T11:20:19.177Z,4884.00
2019-05-05T11:21:19.084Z,4928.00
2019-05-05T11:23:11.864Z,5040.00
2019-05-05T11:24:11.831Z,5072.00
2019-05-05T11:26:04.650Z,4736.00
2019-05-05T11:27:04.618Z,4576.00
2019-05-05T11:28:57.335Z,4344.00
2019-05-05T11:29:57.295Z,4252.00
2019-05-05T11:31:50.073Z,4088.00
2019-05-05T11:32:50.132Z,4028.00
2019-05-05T11:34:44.258Z,3876.00
2019-05-05T11:35:44.429Z,3808.00
2019-05-05T11:37:35.557Z,3744.00
2019-05-05T11:38:35.471Z,3444.00
2019-05-05T11:40:28.384Z,3544.00
2019-05-05T11:41:28.305Z,3608.00
2019-05-05T11:43:21.076Z,3636.00
2019-05-05T11:44:21.075Z,3584.00
2019-05-05T11:46:14.222Z,3424.00
2019-05-05T11:47:14.056Z,3388.00
2019-05-05T11:49:06.767Z,3572.00
2019-05-05T11:50:06.667Z,3860.00
2019-05-05T11:51:59.429Z,3644.00
2019-05-05T11:52:59.375Z,3712.00
2019-05-05T11:54:54.286Z,3808.00
2019-05-05T11:55:52.081Z,3808.00
2019-05-05T11:57:44.905Z,3904.00
2019-05-05T11:58:44.892Z,3924.00
2019-05-05T12:00:38.518Z,3940.00
2019-05-05T12:01:38.400Z,3984.00
2019-05-05T12:03:31.200Z,3960.00
2019-05-05T12:04:31.131Z,3908.00
2019-05-05T12:06:24.669Z,4016.00
2019-05-05T12:07:23.899Z,4256.00
2019-05-05T12:09:16.707Z,4056.00
2019-05-05T12:10:16.601Z,3920.00
2019-05-05T12:12:09.387Z,3896.00
2019-05-05T12:13:09.330Z,3896.00
2019-05-05T12:15:04.227Z,3756.00
2019-05-05T12:16:04.364Z,4016.00
2019-05-05T12:17:55.133Z,4052.00
2019-05-05T12:18:55.065Z,3828.00
2019-05-05T12:20:48.016Z,3984.00
2019-05-05T12:21:47.875Z,4128.00
2019-05-05T12:23:40.745Z,4136.00
2019-05-05T12:24:40.688Z,4344.00
2019-05-05T12:26:34.723Z,4440.00
2019-05-05T12:27:33.957Z,4248.00
2019-05-05T12:29:26.216Z,4476.00
2019-05-05T12:30:26.151Z,4232.00
2019-05-05T12:32:18.932Z,4352.00
2019-05-05T12:33:18.873Z,4472.00
2019-05-05T12:35:11.770Z,4272.00
2019-05-05T12:36:11.687Z,4176.00
2019-05-05T12:38:04.515Z,3996.00
2019-05-05T12:39:04.414Z,3916.00
2019-05-05T12:40:57.282Z,3712.00
2019-05-05T12:41:57.229Z,3556.00
2019-05-05T12:43:50.155Z,3396.00
2019-05-05T12:44:50.035Z,3312.00
2019-05-05T12:46:44.212Z,3140.00
2019-05-05T12:47:43.997Z,3036.00
2019-05-05T12:49:35.494Z,2884.00
2019-05-05T12:50:35.393Z,2812.00
2019-05-05T12:52:28.194Z,2652.00
2019-05-05T12:53:28.254Z,2572.00
2019-05-05T12:55:20.944Z,2508.00
2019-05-05T12:56:20.866Z,2500.00
2019-05-05T12:58:13.944Z,2540.00
2019-05-05T12:59:14.298Z,2552.00
2019-05-05T13:01:06.421Z,2608.00
2019-05-05T13:02:06.339Z,2660.00
2019-05-05T13:03:59.139Z,2836.00
2019-05-05T13:04:59.070Z,2964.00
2019-05-05T13:06:53.922Z,3164.00
2019-05-05T13:07:51.747Z,3228.00
2019-05-05T13:09:44.602Z,3340.00
2019-05-05T13:10:44.489Z,3372.00
2019-05-05T13:12:37.315Z,3564.00
2019-05-05T13:13:37.207Z,3724.00
2019-05-05T13:15:30.423Z,4084.00
2019-05-05T13:16:29.919Z,4248.00
2019-05-05T13:18:24.536Z,4424.00
2019-05-05T13:19:24.189Z,4496.00
2019-05-05T13:21:15.505Z,4544.00
2019-05-05T13:22:15.740Z,4548.00
2019-05-05T13:24:08.194Z,4584.00
2019-05-05T13:25:08.119Z,4584.00
2019-05-05T13:27:00.979Z,4520.00
2019-05-05T13:28:00.857Z,4496.00
2019-05-05T13:29:53.769Z,4400.00
2019-05-05T13:30:54.129Z,4336.00
2019-05-05T13:32:46.421Z,4208.00
2019-05-05T13:33:46.352Z,4148.00
2019-05-05T13:35:39.150Z,4104.00
2019-05-05T13:36:39.061Z,4088.00
2019-05-05T13:38:31.875Z,4008.00
2019-05-05T13:39:33.904Z,3940.00
2019-05-05T13:41:24.626Z,3848.00
2019-05-05T13:42:24.549Z,3808.00
2019-05-05T13:44:17.280Z,3724.00
2019-05-05T13:45:17.215Z,3672.00
2019-05-05T13:47:10.038Z,3536.00
2019-05-05T13:48:09.939Z,3440.00
2019-05-05T13:50:03.674Z,3224.00
2019-05-05T13:51:04.283Z,3124.00
2019-05-05T13:52:55.521Z,2968.00
2019-05-05T13:53:55.359Z,2924.00
2019-05-05T13:55:48.142Z,3028.00
2019-05-05T13:56:48.082Z,3052.00
2019-05-05T13:58:40.950Z,3324.00
2019-05-05T13:59:40.823Z,3376.00
2019-05-05T14:01:34.247Z,3416.00
2019-05-05T14:02:33.730Z,3412.00
2019-05-05T14:04:26.520Z,3488.00
2019-05-05T14:05:26.456Z,3528.00
2019-05-05T14:07:19.425Z,3556.00
2019-05-05T14:08:19.350Z,3524.00
2019-05-05T14:10:14.257Z,3480.00
2019-05-05T14:11:14.078Z,3488.00
2019-05-05T14:13:04.911Z,3540.00
2019-05-05T14:14:04.889Z,3684.00
2019-05-05T14:15:57.730Z,3576.00
2019-05-05T14:16:57.701Z,3572.00
2019-05-05T14:18:50.516Z,3252.00
2019-05-05T14:20:04.195Z,2896.00
2019-05-05T14:21:44.641Z,2484.00
2019-05-05T14:22:43.847Z,2232.00
2019-05-05T14:24:35.068Z,2028.00
2019-05-05T14:25:35.024Z,2016.00
2019-05-05T14:27:27.757Z,2032.00
2019-05-05T14:28:27.683Z,2012.00
2019-05-05T14:30:20.564Z,1976.00
2019-05-05T14:31:20.492Z,1972.00
2019-05-05T14:33:13.329Z,1928.00
2019-05-05T14:34:13.970Z,1900.00
2019-05-05T14:36:06.111Z,1844.00
2019-05-05T14:37:05.895Z,1860.00
2019-05-05T14:38:58.848Z,1996.00
2019-05-05T14:39:58.709Z,2004.00
2019-05-05T14:41:53.808Z,2580.00
2019-05-05T14:42:51.469Z,2548.00
2019-05-05T14:44:44.246Z,2132.00
2019-05-05T14:45:44.414Z,2072.00
2019-05-05T14:47:36.990Z,2100.00
2019-05-05T14:48:37.269Z,2128.00
2019-05-05T14:50:29.934Z,2048.00
2019-05-05T14:51:29.671Z,2284.00
2019-05-05T14:53:24.109Z,1956.00
2019-05-05T14:54:22.423Z,2020.00
2019-05-05T14:56:15.239Z,1844.00
2019-05-05T14:57:15.162Z,1932.00
2019-05-05T14:59:07.996Z,1736.00
2019-05-05T15:00:07.936Z,1880.00
2019-05-05T15:02:00.729Z,1844.00
2019-05-05T15:03:00.881Z,1868.00
2019-05-05T15:04:55.738Z,1924.00
2019-05-05T15:05:54.804Z,1968.00
2019-05-05T15:07:47.208Z,2116.00
2019-05-05T15:08:47.060Z,2092.00
2019-05-05T15:10:39.974Z,2084.00
2019-05-05T15:11:39.759Z,2088.00
2019-05-05T15:13:33.606Z,2240.00
2019-05-05T15:14:32.528Z,2320.00
2019-05-05T15:16:25.440Z,2252.00
2019-05-05T15:17:25.284Z,2208.00
2019-05-05T15:19:18.060Z,2200.00
2019-05-05T15:20:17.940Z,2192.00
2019-05-05T15:22:10.924Z,2200.00
2019-05-05T15:23:10.719Z,2212.00
2019-05-05T15:25:04.194Z,2272.00
2019-05-05T15:26:04.459Z,2272.00
2019-05-05T15:27:56.316Z,2260.00
2019-05-05T15:28:59.297Z,2856.00
2019-05-05T15:30:49.037Z,2848.00
2019-05-05T15:31:48.958Z,2856.00
2019-05-05T15:33:41.822Z,2416.00
2019-05-05T15:34:43.767Z,2688.00
2019-05-05T15:36:34.489Z,2760.00
2019-05-05T15:37:34.601Z,2740.00
2019-05-05T17:46:03.888Z,552.00
2019-05-05T17:47:04.456Z,536.00
2019-05-05T17:48:56.345Z,516.00
2019-05-05T17:49:57.572Z,524.00
2019-05-05T17:51:48.810Z,480.00
2019-05-05T17:52:49.287Z,464.00
2019-05-05T17:54:41.535Z,436.00
2019-05-05T17:55:44.351Z,424.00
2019-05-05T17:57:34.575Z,408.00
2019-05-05T17:58:34.167Z,396.00
2019-05-05T18:00:26.994Z,376.00
2019-05-05T18:01:26.872Z,360.00
2019-05-05T18:03:19.715Z,336.00
2019-05-05T18:04:19.643Z,328.00
2019-05-05T18:06:14.315Z,308.00
2019-05-05T18:07:14.278Z,304.00
2019-05-05T18:09:06.683Z,292.00
2019-05-05T18:10:05.715Z,280.00
2019-05-05T18:11:58.828Z,256.00
2019-05-05T18:12:58.699Z,248.00
2019-05-05T18:14:51.277Z,224.00
2019-05-05T18:15:51.193Z,212.00
2019-05-05T18:17:44.112Z,192.00
2019-05-05T18:18:44.431Z,180.00
2019-05-05T18:20:36.949Z,164.00
2019-05-05T18:21:36.784Z,152.00
2019-05-05T18:23:30.126Z,136.00
2019-05-05T18:24:30.059Z,128.00
2019-05-05T18:26:24.329Z,116.00
2019-05-05T18:27:23.686Z,108.00
2019-05-05T18:29:16.024Z,100.00
2019-05-05T18:30:15.941Z,92.00
2019-05-05T18:32:08.790Z,80.00
2019-05-05T18:33:08.710Z,72.00
2019-05-05T18:35:04.477Z,64.00
2019-05-05T18:36:01.408Z,60.00
2019-05-05T18:37:54.570Z,52.00
2019-05-05T18:38:54.535Z,48.00
2019-05-05T18:40:47.295Z,40.00
2019-05-05T18:41:47.207Z,36.00
2019-05-05T18:43:40.313Z,28.00
2019-05-05T18:44:39.998Z,24.00
2019-05-05T18:46:33.931Z,20.00
2019-05-05T18:47:34.064Z,16.00
2019-05-05T18:49:24.661Z,16.00
2019-05-05T18:50:24.521Z,12.00
2019-05-05T18:52:17.252Z,8.00
2019-05-05T18:53:17.173Z,12.00
2019-05-05T18:55:10.837Z,8.00
2019-05-05T18:56:09.907Z,8.00
2019-05-05T18:58:02.789Z,8.00
2019-05-05T18:59:06.487Z,4.00
2019-05-05T19:00:55.660Z,4.00
2019-05-05T19:01:55.510Z,4.00
2019-05-05T19:03:48.376Z,4.00
2019-05-05T19:04:48.709Z,0.00
2019-05-05T19:06:41.430Z,4.00
2019-05-05T19:07:54.493Z,4.00
2019-05-05T19:09:34.010Z,0.00
2019-05-05T19:10:33.802Z,0.00
2019-05-05T19:12:26.680Z,0.00
2019-05-05T19:13:26.575Z,0.00
2019-05-05T19:15:20.177Z,0.00
2019-05-05T19:16:20.099Z,0.00
2019-05-05T19:18:14.034Z,0.00
2019-05-05T19:19:14.307Z,0.00
2019-05-05T19:21:06.270Z,0.00
2019-05-05T19:22:05.621Z,0.00
2019-05-05T19:23:58.480Z,0.00
2019-05-05T19:24:58.447Z,0.00
2019-05-05T19:26:51.456Z,0.00
2019-05-05T19:27:51.132Z,0.00
2019-05-05T19:29:46.211Z,0.00
2019-05-05T19:30:44.192Z,0.00
2019-05-05T19:32:36.910Z,0.00
2019-05-05T19:33:36.608Z,0.00
2019-05-05T19:35:40.133Z,0.00
2019-05-05T19:36:29.319Z,0.00
2019-05-05T19:38:23.707Z,0.00
2019-05-05T19:39:24.162Z,0.00
2019-05-05T19:41:15.070Z,0.00
2019-05-05T19:42:14.979Z,0.00
2019-05-05T19:44:07.753Z,0.00
2019-05-05T19:45:07.765Z,0.00
2019-05-05T19:47:00.596Z,0.00
2019-05-05T19:48:00.410Z,0.00
2019-05-05T19:49:53.215Z,0.00
2019-05-05T19:50:54.213Z,0.00
2019-05-05T19:52:46.634Z,0.00